createdAt,value
2018-09-10T00:01:35.641Z,68.30
2018-09-10T00:04:19.258Z,67.90
2018-09-10T00:07:03.729Z,68.50
2018-09-10T00:09:47.314Z,68.50
2018-09-10T00:12:30.992Z,68.50
2018-09-10T00:15:14.600Z,68.70
2018-09-10T00:17:58.204Z,69.10
2018-09-10T00:20:41.840Z,68.80
2018-09-10T00:23:26.218Z,69.00
2018-09-10T00:26:09.810Z,69.50
2018-09-10T00:28:53.453Z,69.50
2018-09-10T00:31:37.061Z,69.80
2018-09-10T00:34:20.941Z,70.10
2018-09-10T00:37:04.570Z,69.80
2018-09-10T00:39:48.185Z,70.10
2018-09-10T00:42:31.775Z,69.90
2018-09-10T00:45:15.384Z,69.60
2018-09-10T00:47:58.963Z,69.20
2018-09-10T00:50:42.583Z,69.50
2018-09-10T00:53:26.177Z,70.60
2018-09-10T00:56:09.807Z,73.20
2018-09-10T00:58:53.393Z,71.90
2018-09-10T01:01:37.029Z,72.10
2018-09-10T01:04:20.690Z,72.40
2018-09-10T01:07:05.261Z,73.10
2018-09-10T01:09:48.865Z,73.30
2018-09-10T01:12:32.505Z,72.80
2018-09-10T01:15:16.079Z,73.30
2018-09-10T01:17:59.695Z,72.60
2018-09-10T01:20:44.095Z,72.20
2018-09-10T01:23:27.683Z,72.80
2018-09-10T01:26:11.294Z,72.50
2018-09-10T01:28:54.905Z,72.70
2018-09-10T01:31:38.504Z,72.70
2018-09-10T01:34:27.663Z,72.80
2018-09-10T01:37:11.289Z,72.60
2018-09-10T01:39:54.907Z,72.70
2018-09-10T01:42:38.502Z,73.30
2018-09-10T01:45:22.137Z,72.70
2018-09-10T01:48:05.786Z,72.40
2018-09-10T01:50:49.382Z,72.00
2018-09-10T01:53:32.999Z,71.80
2018-09-10T01:56:16.581Z,71.70
2018-09-10T01:59:00.200Z,71.50
2018-09-10T02:01:43.948Z,72.10
2018-09-10T02:04:27.558Z,71.40
2018-09-10T02:07:11.169Z,72.00
2018-09-10T02:09:54.753Z,71.50
2018-09-10T02:12:38.352Z,71.30
2018-09-10T02:15:21.957Z,71.80
2018-09-10T02:18:05.868Z,70.80
2018-09-10T02:20:49.452Z,70.70
2018-09-10T02:23:33.081Z,70.80
2018-09-10T02:26:16.627Z,70.70
2018-09-10T02:29:00.271Z,71.30
2018-09-10T02:31:43.912Z,71.30
2018-09-10T02:34:27.529Z,71.50
2018-09-10T02:37:11.115Z,71.70
2018-09-10T02:39:54.736Z,71.70
2018-09-10T02:42:38.328Z,71.80
2018-09-10T02:45:21.942Z,71.30
2018-09-10T02:48:05.519Z,71.30
2018-09-10T02:50:49.120Z,71.10
2018-09-10T02:53:32.741Z,71.80
2018-09-10T02:56:16.318Z,71.30
2018-09-10T02:59:00.115Z,71.20
2018-09-10T03:01:43.697Z,72.00
2018-09-10T03:04:27.312Z,71.40
2018-09-10T03:07:10.899Z,72.00
2018-09-10T03:09:54.483Z,71.90
2018-09-10T03:12:38.073Z,72.20
2018-09-10T03:15:22.078Z,72.40
2018-09-10T03:18:05.808Z,73.40
2018-09-10T03:20:49.332Z,72.50
2018-09-10T03:23:32.915Z,73.10
2018-09-10T03:26:16.523Z,73.20
2018-09-10T03:29:00.100Z,73.10
2018-09-10T03:31:43.697Z,72.90
2018-09-10T03:34:27.337Z,72.50
2018-09-10T03:37:10.966Z,73.00
2018-09-10T03:39:54.529Z,73.20
2018-09-10T03:42:38.138Z,73.40
2018-09-10T03:45:21.741Z,73.30
2018-09-10T03:48:05.318Z,73.80
2018-09-10T03:53:32.210Z,73.00
2018-09-10T03:56:15.827Z,73.40
2018-09-10T03:58:59.504Z,73.20
2018-09-10T04:04:32.938Z,72.40
2018-09-10T04:07:16.530Z,72.90
2018-09-10T04:10:00.155Z,72.00
2018-09-10T04:12:44.336Z,72.00
2018-09-10T04:15:27.943Z,71.90
2018-09-10T04:18:11.555Z,71.90
2018-09-10T04:20:55.393Z,72.40
2018-09-10T04:23:38.986Z,72.00
2018-09-10T04:26:22.582Z,72.40
2018-09-10T04:29:06.174Z,72.00
2018-09-10T04:31:49.768Z,72.20
2018-09-10T04:34:33.366Z,72.40
2018-09-10T04:37:16.970Z,73.00
2018-09-10T04:40:00.545Z,72.50
2018-09-10T04:45:27.466Z,72.00
2018-09-10T04:48:11.078Z,72.20
2018-09-10T04:50:54.660Z,71.40
2018-09-10T04:53:38.242Z,71.90
2018-09-10T04:56:21.813Z,71.30
2018-09-10T04:59:05.423Z,71.00
2018-09-10T05:01:49.050Z,71.20
2018-09-10T05:04:32.765Z,70.70
2018-09-10T05:07:16.258Z,70.70
2018-09-10T05:09:59.871Z,70.70
2018-09-10T05:12:43.468Z,70.20
2018-09-10T05:15:27.108Z,70.10
2018-09-10T05:18:10.752Z,69.90
2018-09-10T05:20:54.353Z,69.80
2018-09-10T05:23:37.889Z,69.50
2018-09-10T05:26:21.475Z,70.00
2018-09-10T05:29:05.060Z,70.10
2018-09-10T05:31:48.653Z,69.20
2018-09-10T05:34:32.275Z,69.20
2018-09-10T05:37:15.848Z,69.00
2018-09-10T05:39:59.453Z,68.90
2018-09-10T05:42:43.103Z,68.90
2018-09-10T05:45:26.700Z,69.80
2018-09-10T05:48:10.387Z,70.00
2018-09-10T05:50:54.024Z,69.30
2018-09-10T05:53:37.641Z,69.10
2018-09-10T05:56:21.203Z,69.00
2018-09-10T05:59:04.824Z,68.60
2018-09-10T06:01:48.424Z,69.30
2018-09-10T06:04:32.019Z,68.80
2018-09-10T06:07:15.607Z,69.50
2018-09-10T06:09:59.219Z,69.50
2018-09-10T06:12:42.798Z,69.70
2018-09-10T06:15:26.395Z,69.10
2018-09-10T06:18:09.996Z,69.80
2018-09-10T06:20:53.584Z,69.90
2018-09-10T06:23:37.152Z,69.80
2018-09-10T06:26:20.726Z,69.50
2018-09-10T06:29:04.342Z,69.00
2018-09-10T06:31:47.930Z,68.70
2018-09-10T06:34:31.511Z,68.50
2018-09-10T06:37:15.127Z,68.10
2018-09-10T06:39:58.640Z,67.90
2018-09-10T06:42:43.429Z,67.70
2018-09-10T06:45:27.030Z,68.10
2018-09-10T06:48:10.592Z,66.30
2018-09-10T06:50:54.175Z,66.10
2018-09-10T06:53:37.939Z,65.40
2018-09-10T06:56:21.466Z,64.30
2018-09-10T06:59:05.162Z,64.00
2018-09-10T07:01:48.728Z,63.10
2018-09-10T07:04:32.306Z,62.10
2018-09-10T07:07:15.885Z,61.90
2018-09-10T07:10:00.166Z,61.20
2018-09-10T07:12:43.856Z,61.60
2018-09-10T07:15:27.387Z,61.80
2018-09-10T07:18:11.010Z,61.80
2018-09-10T07:20:54.667Z,62.40
2018-09-10T07:23:38.266Z,62.80
2018-09-10T07:26:21.885Z,63.80
2018-09-10T07:29:05.506Z,64.40
2018-09-10T07:31:50.010Z,64.70
2018-09-10T07:34:33.667Z,64.50
2018-09-10T07:37:17.186Z,65.20
2018-09-10T07:40:00.886Z,65.40
2018-09-10T07:42:44.520Z,65.60
2018-09-10T07:45:28.090Z,65.90
2018-09-10T07:48:11.721Z,65.70
2018-09-10T07:50:55.318Z,65.30
2018-09-10T07:53:40.160Z,65.10
2018-09-10T07:56:24.508Z,64.70
2018-09-10T07:59:08.113Z,64.70
2018-09-10T08:01:51.689Z,63.60
2018-09-10T08:04:35.288Z,64.60
2018-09-10T08:07:18.896Z,64.50
2018-09-10T08:10:02.509Z,64.00
2018-09-10T08:12:46.125Z,62.80
2018-09-10T08:15:29.728Z,61.40
2018-09-10T08:18:13.292Z,61.40
2018-09-10T08:20:56.901Z,60.10
2018-09-10T08:23:40.500Z,58.90
2018-09-10T08:26:24.114Z,57.50
2018-09-10T08:29:07.720Z,54.60
2018-09-10T08:31:51.327Z,51.70
2018-09-10T08:34:34.979Z,49.50
2018-09-10T08:37:18.608Z,48.00
2018-09-10T08:40:02.216Z,48.60
2018-09-10T08:42:45.881Z,49.40
2018-09-10T08:45:29.410Z,50.10
2018-09-10T08:48:13.079Z,50.80
2018-09-10T08:50:56.622Z,51.30
2018-09-10T08:53:40.263Z,52.10
2018-09-10T08:56:24.938Z,53.10
2018-09-10T08:59:08.458Z,52.10
2018-09-10T09:01:52.076Z,51.60
2018-09-10T09:04:35.652Z,51.70
2018-09-10T09:07:19.240Z,52.20
2018-09-10T09:10:02.851Z,53.00
2018-09-10T09:12:46.417Z,53.70
2018-09-10T09:15:30.869Z,54.40
2018-09-10T09:18:14.461Z,54.80
2018-09-10T09:20:58.058Z,55.30
2018-09-10T09:23:42.614Z,55.60
2018-09-10T09:26:26.180Z,55.50
2018-09-10T09:29:09.818Z,55.10
2018-09-10T09:31:53.426Z,55.00
2018-09-10T09:34:42.632Z,54.50
2018-09-10T09:37:31.488Z,53.60
2018-09-10T09:40:20.527Z,53.40
2018-09-10T09:43:09.785Z,52.00
2018-09-10T09:45:58.881Z,50.70
2018-09-10T09:48:42.479Z,49.50
2018-09-10T09:54:09.394Z,46.80
2018-09-10T09:56:53.124Z,47.70
2018-09-10T09:59:36.699Z,48.50
2018-09-10T10:02:21.073Z,50.00
2018-09-10T10:05:08.348Z,50.70
2018-09-10T10:10:43.366Z,52.70
2018-09-10T10:16:20.793Z,53.50
2018-09-10T10:19:05.615Z,53.60
2018-09-10T10:21:56.206Z,53.40
2018-09-10T10:24:39.713Z,53.30
2018-09-10T10:27:23.375Z,53.20
2018-09-10T10:32:56.552Z,50.40
2018-09-10T10:35:40.246Z,50.20
2018-09-10T10:38:23.892Z,49.80
2018-09-10T10:41:07.507Z,46.80
2018-09-10T10:43:51.110Z,45.00
2018-09-10T10:46:34.824Z,45.60
2018-09-10T10:49:18.417Z,46.10
2018-09-10T10:52:02.081Z,44.80
2018-09-10T10:54:45.729Z,43.70
2018-09-10T10:57:29.322Z,42.60
2018-09-10T11:00:12.938Z,40.50
2018-09-10T11:02:56.604Z,41.10
2018-09-10T11:05:40.233Z,40.60
2018-09-10T11:08:23.867Z,40.60
2018-09-10T11:11:07.543Z,42.30
2018-09-10T11:13:51.229Z,43.00
2018-09-10T11:16:34.904Z,43.50
2018-09-10T11:19:18.497Z,43.60
2018-09-10T11:22:02.108Z,44.50
2018-09-10T11:24:45.817Z,43.70
2018-09-10T11:27:29.556Z,43.70
2018-09-10T11:30:13.192Z,43.60
2018-09-10T11:32:56.797Z,43.50
2018-09-10T11:35:40.466Z,44.90
2018-09-10T11:38:24.070Z,45.70
2018-09-10T11:41:08.298Z,44.80
2018-09-10T11:43:51.958Z,44.20
2018-09-10T11:46:36.249Z,44.00
2018-09-10T11:49:19.828Z,43.90
2018-09-10T11:52:03.411Z,44.70
2018-09-10T11:54:47.033Z,46.10
2018-09-10T11:57:30.658Z,46.70
2018-09-10T12:00:14.305Z,47.40
2018-09-10T12:02:57.926Z,47.50
2018-09-10T12:05:41.688Z,47.60
2018-09-10T12:08:25.351Z,48.20
2018-09-10T12:11:08.961Z,48.20
2018-09-10T12:13:52.602Z,46.90
2018-09-10T12:16:36.215Z,46.80
2018-09-10T12:19:19.834Z,46.10
2018-09-10T12:22:07.361Z,45.50
2018-09-10T12:24:56.122Z,44.70
2018-09-10T12:27:41.906Z,44.40
2018-09-10T12:33:19.974Z,44.10
2018-09-10T12:36:10.270Z,44.40
2018-09-10T12:44:48.413Z,43.50
2018-09-10T12:47:33.363Z,44.00
2018-09-10T12:50:18.641Z,44.40
2018-09-10T12:53:10.091Z,44.60
2018-09-10T12:58:42.263Z,44.80
2018-09-10T13:04:21.277Z,45.50
2018-09-10T13:09:59.490Z,46.20
2018-09-10T13:12:43.118Z,46.40
2018-09-10T13:21:01.515Z,47.30
2018-09-10T13:26:29.711Z,47.80
2018-09-10T13:29:13.299Z,48.00
2018-09-10T13:31:56.921Z,47.50
2018-09-10T13:37:23.815Z,47.60
2018-09-10T13:40:07.422Z,47.20
2018-09-10T13:45:34.370Z,45.60
2018-09-10T13:48:18.055Z,45.00
2018-09-10T13:51:01.697Z,45.00
2018-09-10T13:53:45.317Z,45.00
2018-09-10T13:56:28.966Z,45.10
2018-09-10T13:59:12.539Z,44.70
2018-09-10T14:01:56.205Z,42.80
2018-09-10T14:04:39.827Z,44.80
2018-09-10T14:07:23.611Z,45.20
2018-09-10T14:10:07.246Z,45.30
2018-09-10T14:12:50.882Z,45.70
2018-09-10T14:15:34.517Z,45.40
2018-09-10T14:18:18.199Z,45.40
2018-09-10T14:21:01.816Z,45.30
2018-09-10T14:23:45.459Z,45.00
2018-09-10T14:26:29.176Z,45.30
2018-09-10T14:29:12.818Z,45.30
2018-09-10T14:31:56.543Z,44.90
2018-09-10T14:34:40.429Z,45.30
2018-09-10T14:37:24.028Z,45.60
2018-09-10T14:40:07.628Z,45.40
2018-09-10T14:42:51.294Z,45.50
2018-09-10T14:45:35.244Z,45.50
2018-09-10T14:48:18.845Z,45.50
2018-09-10T14:51:02.583Z,45.50
2018-09-10T14:53:46.157Z,45.30
2018-09-10T14:56:29.856Z,45.70
2018-09-10T14:59:13.465Z,46.20
2018-09-10T15:01:57.099Z,46.40
2018-09-10T15:04:40.681Z,46.00
2018-09-10T15:07:24.331Z,46.20
2018-09-10T15:10:09.140Z,46.40
2018-09-10T15:12:52.820Z,46.00
2018-09-10T15:15:36.445Z,46.10
2018-09-10T15:18:20.144Z,46.10
2018-09-10T15:21:03.680Z,46.10
2018-09-10T15:23:47.380Z,45.80
2018-09-10T15:26:30.986Z,45.90
2018-09-10T15:29:14.753Z,46.20
2018-09-10T15:31:58.364Z,46.20
2018-09-10T15:34:42.070Z,46.40
2018-09-10T15:37:25.678Z,46.60
2018-09-10T15:40:09.344Z,47.00
2018-09-10T15:42:52.934Z,47.00
2018-09-10T15:45:36.693Z,47.40
2018-09-10T15:48:20.295Z,47.70
2018-09-10T15:51:03.934Z,48.30
2018-09-10T15:53:47.506Z,47.50
2018-09-10T15:56:31.143Z,47.50
2018-09-10T15:59:14.786Z,47.80
2018-09-10T16:01:58.494Z,48.10
2018-09-10T16:04:42.316Z,48.60
2018-09-10T16:07:25.990Z,48.90
2018-09-10T16:10:09.641Z,49.10
2018-09-10T16:12:53.874Z,49.40
2018-09-10T16:15:38.056Z,49.50
2018-09-10T16:18:21.952Z,49.50
2018-09-10T16:21:06.937Z,49.60
2018-09-10T16:23:50.525Z,49.60
2018-09-10T16:26:34.202Z,50.00
2018-09-10T16:29:18.555Z,50.10
2018-09-10T16:32:02.126Z,50.60
2018-09-10T16:40:12.534Z,49.90
2018-09-10T16:42:56.172Z,50.30
2018-09-10T16:45:39.782Z,50.40
2018-09-10T16:48:23.534Z,50.40
2018-09-10T16:51:08.037Z,50.80
2018-09-10T16:53:52.345Z,51.00
2018-09-10T16:56:36.058Z,51.10
2018-09-10T16:59:19.835Z,51.50
2018-09-10T17:04:47.617Z,52.30
2018-09-10T17:07:31.253Z,52.70
2018-09-10T17:10:15.187Z,53.10
2018-09-10T17:12:58.831Z,53.40
2018-09-10T17:15:42.737Z,53.60
2018-09-10T17:18:27.210Z,54.10
2018-09-10T17:21:11.351Z,54.20
2018-09-10T17:23:55.077Z,54.40
2018-09-10T17:26:38.874Z,54.60
2018-09-10T17:29:22.606Z,54.80
2018-09-10T17:32:15.049Z,55.00
2018-09-10T17:37:48.631Z,55.30
2018-09-10T17:40:37.810Z,55.50
2018-09-10T17:46:19.971Z,56.00
2018-09-10T17:49:07.976Z,56.50
2018-09-10T17:54:45.273Z,57.00
2018-09-10T18:00:25.179Z,57.10
2018-09-10T18:05:56.266Z,57.60
2018-09-10T18:08:39.924Z,57.70
2018-09-10T18:11:23.566Z,58.00
2018-09-10T18:14:07.206Z,58.10
2018-09-10T18:16:50.796Z,58.40
2018-09-10T18:19:34.431Z,58.40
2018-09-10T18:22:18.685Z,58.70
2018-09-10T18:25:02.348Z,58.90
2018-09-10T18:33:19.786Z,59.30
2018-09-10T18:36:03.394Z,59.50
2018-09-10T18:38:47.050Z,59.60
2018-09-10T18:41:30.641Z,59.70
2018-09-10T18:44:14.290Z,59.80
2018-09-10T18:46:57.887Z,59.80
2018-09-10T18:49:41.453Z,59.90
2018-09-10T18:52:25.104Z,60.00
2018-09-10T18:55:08.696Z,60.70
2018-09-10T18:57:52.812Z,60.40
2018-09-10T19:00:36.508Z,60.40
2018-09-10T19:03:20.249Z,60.60
2018-09-10T19:06:03.885Z,61.00
2018-09-10T19:08:47.544Z,61.00
2018-09-10T19:11:31.233Z,61.10
2018-09-10T19:14:14.813Z,61.30
2018-09-10T19:16:58.461Z,61.30
2018-09-10T19:19:42.093Z,62.00
2018-09-10T19:22:25.777Z,62.30
2018-09-10T19:25:09.356Z,62.30
2018-09-10T19:27:52.960Z,62.60
2018-09-10T19:30:36.612Z,62.50
2018-09-10T19:33:21.124Z,62.70
2018-09-10T19:36:04.762Z,62.90
2018-09-10T19:38:48.378Z,62.90
2018-09-10T19:41:32.408Z,63.10
2018-09-10T19:44:16.054Z,63.00
2018-09-10T19:47:00.805Z,63.30
2018-09-10T19:49:44.438Z,63.20
2018-09-10T19:52:28.031Z,63.50
2018-09-10T19:55:11.610Z,63.40
2018-09-10T19:57:55.191Z,63.30
2018-09-10T20:00:38.807Z,63.40
2018-09-10T20:03:22.419Z,63.70
2018-09-10T20:06:06.244Z,63.80
2018-09-10T20:08:49.831Z,63.60
2018-09-10T20:11:34.406Z,63.60
2018-09-10T20:14:18.014Z,63.60
2018-09-10T20:17:01.582Z,63.70
2018-09-10T20:19:45.172Z,63.80
2018-09-10T20:22:28.852Z,64.30
2018-09-10T20:25:12.441Z,64.10
2018-09-10T20:27:56.062Z,64.30
2018-09-10T20:30:39.750Z,64.50
2018-09-10T20:33:24.196Z,64.50
2018-09-10T20:36:07.852Z,64.60
2018-09-10T20:38:51.429Z,64.60
2018-09-10T20:41:35.052Z,64.80
2018-09-10T20:44:18.766Z,65.00
2018-09-10T20:47:02.379Z,65.00
2018-09-10T20:49:46.216Z,65.00
2018-09-10T20:52:29.880Z,65.80
2018-09-10T20:55:13.539Z,66.00
2018-09-10T20:57:57.178Z,66.40
2018-09-10T21:00:41.771Z,66.30
2018-09-10T21:03:25.387Z,66.30
2018-09-10T21:06:09.056Z,65.80
2018-09-10T21:08:52.662Z,65.60
2018-09-10T21:11:36.304Z,66.20
2018-09-10T21:14:19.902Z,65.70
2018-09-10T21:17:03.642Z,66.10
2018-09-10T21:19:47.268Z,66.20
2018-09-10T21:22:30.908Z,66.10
2018-09-10T21:25:14.516Z,65.80
2018-09-10T21:27:58.097Z,65.80
2018-09-10T21:30:41.709Z,65.80
2018-09-10T21:33:25.430Z,66.10
2018-09-10T21:36:09.089Z,66.20
2018-09-10T21:38:52.724Z,66.70
2018-09-10T21:41:36.547Z,65.70
2018-09-10T21:44:20.178Z,66.00
2018-09-10T21:47:03.796Z,65.90
2018-09-10T21:49:47.478Z,65.70
2018-09-10T21:52:31.113Z,65.70
2018-09-10T21:55:14.755Z,65.80
2018-09-10T21:57:58.391Z,65.70
2018-09-10T22:00:48.150Z,65.70
2018-09-10T22:03:31.790Z,65.70
2018-09-10T22:06:15.417Z,65.80
2018-09-10T22:08:59.099Z,66.30
2018-09-10T22:11:48.102Z,66.60
2018-09-10T22:14:32.622Z,67.20
2018-09-10T22:17:16.242Z,67.20
2018-09-10T22:19:59.879Z,67.20
2018-09-10T22:22:43.462Z,67.50
2018-09-10T22:25:27.045Z,67.80
2018-09-10T22:28:10.669Z,67.50
2018-09-10T22:30:54.333Z,67.90
2018-09-10T22:33:37.984Z,68.10
2018-09-10T22:36:21.601Z,68.80
2018-09-10T22:39:08.130Z,69.10
2018-09-10T22:41:51.725Z,68.90
2018-09-10T22:44:35.990Z,68.80
2018-09-10T22:47:19.621Z,68.70
2018-09-10T22:50:03.270Z,68.90
2018-09-10T22:52:46.888Z,68.90
2018-09-10T22:55:30.521Z,68.80
2018-09-10T22:58:14.120Z,69.00
2018-09-10T23:00:57.714Z,69.10
2018-09-10T23:03:41.403Z,69.30
2018-09-10T23:06:25.036Z,69.50
2018-09-10T23:09:09.406Z,69.60
2018-09-10T23:11:53.058Z,69.70
2018-09-10T23:14:36.703Z,69.90
2018-09-10T23:17:20.354Z,69.80
2018-09-10T23:20:03.998Z,70.20
2018-09-10T23:22:47.621Z,70.40
2018-09-10T23:25:31.276Z,70.20
2018-09-10T23:28:14.946Z,70.90
2018-09-10T23:30:58.544Z,71.90
2018-09-10T23:33:42.130Z,70.70
2018-09-10T23:36:25.795Z,70.50
2018-09-10T23:39:09.803Z,70.60
2018-09-10T23:41:53.406Z,70.50
2018-09-10T23:44:37.005Z,70.50
2018-09-10T23:47:20.637Z,70.70
2018-09-10T23:50:04.370Z,70.70
2018-09-10T23:52:47.985Z,70.50
2018-09-10T23:55:31.664Z,70.60
2018-09-10T23:58:15.317Z,70.70
